Time;durP1;ratioP1;P1;durP2;ratioP2;P2;SDS_P1;SDS_P2;PMS_P1;PMS_P2;Temp;Humidity;BMP_temperature;BMP_pressure;BME280_temperature;BME280_humidity;BME280_pressure;Samples;Min_cycle;Max_cycle;Signal;HPM_P1;HPM_P2
2021/05/21 00:00:50;;;;;;;25.87;24.47;;;12.50;74.90;;;;;;4984365;28;20477;-78
2021/05/21 00:03:16;;;;;;;26.17;24.77;;;12.50;74.40;;;;;;4994413;28;21271;-77
2021/05/21 00:05:42;;;;;;;25.53;24.23;;;12.50;74.30;;;;;;4988346;28;20533;-77
2021/05/21 00:08:11;;;;;;;25.60;24.20;;;12.50;74.60;;;;;;4982412;28;20792;-78
2021/05/21 00:10:37;;;;;;;25.10;23.80;;;12.50;74.30;;;;;;4989660;28;20482;-77
2021/05/21 00:13:04;;;;;;;25.47;24.00;;;12.50;75.50;;;;;;4990082;28;20859;-78
2021/05/21 00:15:31;;;;;;;26.53;24.83;;;12.50;74.50;;;;;;4975437;28;20468;-77
2021/05/21 00:17:57;;;;;;;25.70;24.30;;;12.50;74.40;;;;;;4981983;28;20497;-78
2021/05/21 00:20:23;;;;;;;25.90;24.50;;;12.40;74.70;;;;;;5000771;28;20461;-78
2021/05/21 00:22:50;;;;;;;26.70;25.00;;;12.40;74.60;;;;;;5006156;28;20478;-78
2021/05/21 00:25:17;;;;;;;25.70;24.40;;;12.40;77.10;;;;;;4986638;28;20469;-77
2021/05/21 00:27:44;;;;;;;26.53;24.67;;;12.40;75.90;;;;;;4980645;28;21047;-78
2021/05/21 00:30:12;;;;;;;25.50;23.97;;;12.30;75.60;;;;;;4979103;28;20569;-77
2021/05/21 00:32:38;;;;;;;26.23;24.57;;;12.30;75.40;;;;;;4996527;28;20576;-77
2021/05/21 00:35:05;;;;;;;25.30;23.70;;;12.30;75.30;;;;;;5005402;28;20559;-77
2021/05/21 00:37:32;;;;;;;25.70;24.20;;;12.30;75.20;;;;;;4993779;28;21043;-78
2021/05/21 00:39:58;;;;;;;25.20;23.90;;;12.30;76.00;;;;;;4986136;28;20461;-78
2021/05/21 00:42:25;;;;;;;24.80;23.50;;;12.30;75.50;;;;;;4986995;28;20482;-77
2021/05/21 00:44:55;;;;;;;25.97;24.57;;;12.40;75.10;;;;;;4987565;28;20468;-77
2021/05/21 00:47:22;;;;;;;25.83;24.53;;;12.40;75.00;;;;;;4983770;28;20493;-77
2021/05/21 00:49:48;;;;;;;24.70;23.37;;;12.40;75.00;;;;;;4987124;28;20484;-78
2021/05/21 00:52:16;;;;;;;25.33;23.73;;;12.40;75.40;;;;;;4987678;28;20489;-77
2021/05/21 00:54:44;;;;;;;25.53;24.13;;;12.30;75.40;;;;;;4975599;28;20457;-77
2021/05/21 00:57:10;;;;;;;25.73;24.20;;;12.30;75.10;;;;;;4984264;28;20516;-77
2021/05/21 00:59:37;;;;;;;25.43;24.03;;;12.20;75.10;;;;;;4986438;28;20464;-77
2021/05/21 01:02:06;;;;;;;25.83;24.30;;;12.20;75.30;;;;;;4980460;28;20480;-77
2021/05/21 01:04:32;;;;;;;25.93;24.50;;;12.10;75.30;;;;;;4993996;28;20467;-77
2021/05/21 01:06:58;;;;;;;26.03;24.60;;;12.20;75.30;;;;;;4992233;28;21005;-77
2021/05/21 01:09:25;;;;;;;25.47;24.17;;;12.20;75.30;;;;;;4986163;28;20481;-77
2021/05/21 01:11:51;;;;;;;26.83;25.43;;;12.20;75.00;;;;;;4985591;28;20531;-77
2021/05/21 01:14:17;;;;;;;25.80;24.40;;;12.20;75.00;;;;;;4987450;28;20464;-77
2021/05/21 01:16:51;;;;;;;25.70;24.20;;;12.30;74.90;;;;;;4985710;28;20563;-77
2021/05/21 01:19:17;;;;;;;25.80;24.40;;;12.40;74.70;;;;;;4988396;28;20891;-77
2021/05/21 01:21:45;;;;;;;26.23;24.63;;;12.40;74.00;;;;;;5007429;28;20480;-77
2021/05/21 01:24:11;;;;;;;25.00;23.70;;;12.40;74.10;;;;;;4990280;28;20466;-77
2021/05/21 01:26:38;;;;;;;25.53;24.13;;;12.30;74.20;;;;;;4990774;28;20463;-78
2021/05/21 01:29:06;;;;;;;25.60;23.90;;;12.30;74.60;;;;;;4987557;28;20461;-77
2021/05/21 01:31:33;;;;;;;25.40;24.00;;;12.30;74.60;;;;;;4974198;28;20824;-78
2021/05/21 01:34:00;;;;;;;26.33;24.83;;;12.20;74.80;;;;;;4990596;28;20992;-77
2021/05/21 01:36:26;;;;;;;26.00;24.43;;;12.10;75.00;;;;;;4987417;28;20588;-77
2021/05/21 01:38:59;;;;;;;26.23;24.73;;;12.20;74.70;;;;;;4992485;28;20552;-77
2021/05/21 01:41:27;;;;;;;25.50;24.03;;;12.10;74.60;;;;;;4982388;28;20473;-77
2021/05/21 01:43:55;;;;;;;26.33;24.93;;;12.10;74.70;;;;;;4984051;28;20500;-77
2021/05/21 01:46:22;;;;;;;26.30;24.90;;;12.10;75.10;;;;;;4986775;28;20557;-78
2021/05/21 01:48:49;;;;;;;27.67;25.53;;;12.10;75.20;;;;;;4984011;28;20472;-77
2021/05/21 01:51:15;;;;;;;25.53;24.23;;;12.00;75.10;;;;;;4984945;28;20736;-77
2021/05/21 01:53:41;;;;;;;25.93;24.50;;;12.10;75.00;;;;;;4987181;28;20470;-77
2021/05/21 01:56:09;;;;;;;25.33;24.03;;;12.00;75.10;;;;;;4984234;28;20582;-77
2021/05/21 01:58:35;;;;;;;26.43;24.80;;;12.10;75.00;;;;;;4992518;28;20461;-77
2021/05/21 02:01:02;;;;;;;26.40;24.87;;;12.10;74.90;;;;;;4996486;28;20461;-77
2021/05/21 02:03:29;;;;;;;25.97;24.30;;;12.10;74.70;;;;;;4986531;28;20503;-77
2021/05/21 02:05:56;;;;;;;24.67;23.37;;;12.10;74.60;;;;;;5008561;28;20464;-77
2021/05/21 02:08:24;;;;;;;25.07;23.67;;;12.20;74.40;;;;;;4997238;28;20461;-77
2021/05/21 02:10:50;;;;;;;25.37;23.97;;;12.20;74.20;;;;;;4997081;28;20515;-77
2021/05/21 02:13:18;;;;;;;26.30;24.60;;;12.20;74.20;;;;;;4983255;28;20507;-78
2021/05/21 02:15:45;;;;;;;25.63;24.20;;;12.10;74.20;;;;;;4989551;28;20461;-78
2021/05/21 02:18:12;;;;;;;26.20;24.40;;;12.20;73.60;;;;;;4989053;28;20986;-78
2021/05/21 02:20:39;;;;;;;27.10;25.20;;;12.30;73.00;;;;;;4982768;28;20528;-78
2021/05/21 02:23:06;;;;;;;26.03;24.63;;;12.30;72.70;;;;;;4996115;28;20491;-78
2021/05/21 02:25:32;;;;;;;29.37;27.77;;;12.40;72.40;;;;;;4987850;28;20471;-78
2021/05/21 02:27:59;;;;;;;25.17;23.87;;;12.50;71.50;;;;;;4990842;28;20469;-79
2021/05/21 02:30:26;;;;;;;25.77;24.37;;;12.50;71.30;;;;;;4990599;28;20887;-78
2021/05/21 02:32:54;;;;;;;27.60;24.90;;;12.50;71.50;;;;;;4987453;28;20565;-77
2021/05/21 02:35:21;;;;;;;25.20;23.90;;;12.50;71.30;;;;;;5000215;28;20467;-77
2021/05/21 02:37:47;;;;;;;26.60;25.10;;;12.50;71.40;;;;;;4990040;28;20484;-78
2021/05/21 02:40:15;;;;;;;25.60;24.20;;;12.50;71.10;;;;;;4994992;28;20460;-78
2021/05/21 02:42:41;;;;;;;25.90;24.20;;;12.50;71.40;;;;;;4994197;28;20493;-78
2021/05/21 02:45:08;;;;;;;25.00;23.70;;;12.40;71.70;;;;;;4986203;28;20463;-78
2021/05/21 02:47:36;;;;;;;25.70;24.30;;;12.40;71.70;;;;;;4983074;28;21018;-78
2021/05/21 02:50:03;;;;;;;26.03;24.53;;;12.40;71.70;;;;;;4991198;28;20846;-78
2021/05/21 02:52:30;;;;;;;29.17;27.67;;;12.30;72.00;;;;;;4989773;28;21060;-79
2021/05/21 02:54:56;;;;;;;25.83;24.33;;;12.30;72.30;;;;;;4995747;28;20464;-78
2021/05/21 02:57:24;;;;;;;25.93;24.53;;;12.30;72.60;;;;;;5007523;28;20560;-77
2021/05/21 02:59:53;;;;;;;25.40;23.97;;;12.30;72.80;;;;;;4987414;28;20967;-78
2021/05/21 03:02:19;;;;;;;29.10;26.30;;;12.30;72.60;;;;;;4987913;28;20488;-77
2021/05/21 03:04:46;;;;;;;25.90;24.20;;;12.30;72.70;;;;;;4999451;28;20468;-77
2021/05/21 03:07:13;;;;;;;26.37;24.73;;;12.20;72.80;;;;;;4994694;28;21010;-77
2021/05/21 03:09:39;;;;;;;26.30;24.83;;;12.20;72.70;;;;;;4986539;28;20560;-78
2021/05/21 03:12:07;;;;;;;28.07;26.20;;;12.20;72.70;;;;;;4990770;28;20508;-78
2021/05/21 03:14:33;;;;;;;26.00;24.50;;;12.10;72.80;;;;;;4990342;28;20452;-78
2021/05/21 03:17:00;;;;;;;134.20;42.70;;;12.10;72.70;;;;;;4988824;28;20839;-78
2021/05/21 03:19:27;;;;;;;25.67;24.27;;;12.20;72.50;;;;;;4985754;28;20454;-79
2021/05/21 03:21:54;;;;;;;26.70;25.00;;;12.20;72.60;;;;;;4972514;28;21241;-78
2021/05/21 03:24:21;;;;;;;28.97;26.53;;;12.20;72.20;;;;;;4982976;28;20545;-78
2021/05/21 03:26:47;;;;;;;81.17;32.77;;;12.20;72.10;;;;;;5006526;28;20637;-79
2021/05/21 03:29:15;;;;;;;30.00;28.20;;;12.20;72.30;;;;;;4989878;28;20557;-78
2021/05/21 03:31:42;;;;;;;30.73;27.73;;;12.10;72.60;;;;;;4988662;28;20574;-77
2021/05/21 03:34:08;;;;;;;26.50;25.07;;;12.10;72.80;;;;;;4985618;28;20469;-79
2021/05/21 03:36:35;;;;;;;32.53;29.17;;;12.10;72.90;;;;;;4987775;28;20466;-79
2021/05/21 03:39:03;;;;;;;31.20;28.40;;;12.10;73.50;;;;;;4986049;28;20592;-79
2021/05/21 03:41:30;;;;;;;99.23;40.93;;;12.10;73.70;;;;;;5010331;28;20568;-78
2021/05/21 03:43:56;;;;;;;29.00;27.00;;;12.10;74.10;;;;;;4982846;28;20501;-77
2021/05/21 03:46:22;;;;;;;27.77;25.80;;;12.10;74.10;;;;;;4984338;28;20507;-78
2021/05/21 03:48:49;;;;;;;32.30;30.13;;;12.10;73.90;;;;;;4986384;28;20959;-78
2021/05/21 03:51:15;;;;;;;24.53;23.13;;;12.10;73.80;;;;;;5007527;28;20480;-78
2021/05/21 03:53:42;;;;;;;29.47;27.67;;;12.10;73.50;;;;;;4999891;28;20462;-77
2021/05/21 03:56:09;;;;;;;26.43;25.00;;;12.10;73.70;;;;;;4991620;28;20468;-78
2021/05/21 03:58:36;;;;;;;27.67;26.10;;;12.10;74.10;;;;;;4987544;28;21045;-77
2021/05/21 04:01:03;;;;;;;24.87;23.47;;;12.00;74.10;;;;;;4981872;28;20450;-78
2021/05/21 04:03:30;;;;;;;25.47;24.07;;;12.10;73.90;;;;;;4986513;28;20472;-78
2021/05/21 04:05:56;;;;;;;25.97;24.43;;;12.00;74.40;;;;;;4999805;28;20563;-78
2021/05/21 04:08:23;;;;;;;24.37;22.97;;;11.90;74.70;;;;;;4996414;28;20462;-77
2021/05/21 04:10:49;;;;;;;25.37;23.87;;;11.90;75.20;;;;;;4986657;28;20495;-78
2021/05/21 04:13:16;;;;;;;29.33;27.53;;;12.00;74.60;;;;;;4975658;28;20952;-77
2021/05/21 04:15:43;;;;;;;25.63;24.07;;;12.10;73.90;;;;;;4988098;28;20556;-78
2021/05/21 04:18:11;;;;;;;27.47;25.83;;;12.10;73.80;;;;;;4985158;28;20465;-77
2021/05/21 04:20:37;;;;;;;27.13;25.20;;;12.10;73.60;;;;;;4985231;28;20461;-77
2021/05/21 04:23:04;;;;;;;26.13;24.13;;;12.30;72.80;;;;;;4987207;28;20496;-77
2021/05/21 04:25:30;;;;;;;25.90;24.40;;;12.30;72.80;;;;;;4998358;28;20534;-78
2021/05/21 04:27:57;;;;;;;25.17;23.67;;;12.30;73.00;;;;;;4989244;28;20911;-77
2021/05/21 04:30:24;;;;;;;24.60;23.20;;;12.30;72.60;;;;;;4989424;28;20909;-77
2021/05/21 04:32:51;;;;;;;26.93;25.37;;;12.40;72.40;;;;;;4982241;28;20894;-77
2021/05/21 04:35:18;;;;;;;27.10;25.50;;;12.40;72.50;;;;;;4989665;28;20458;-77
2021/05/21 04:37:44;;;;;;;24.90;23.30;;;12.50;72.50;;;;;;4997323;28;20536;-76
2021/05/21 04:40:11;;;;;;;26.50;25.00;;;12.50;72.60;;;;;;4973892;28;20463;-80
2021/05/21 04:42:38;;;;;;;26.00;24.40;;;12.50;72.60;;;;;;4975594;28;20635;-77
2021/05/21 04:45:06;;;;;;;28.43;26.83;;;12.50;72.30;;;;;;4989386;28;20897;-78
2021/05/21 04:47:34;;;;;;;25.60;24.13;;;12.60;72.40;;;;;;4986154;28;20462;-77
2021/05/21 04:50:00;;;;;;;25.10;23.70;;;12.60;72.50;;;;;;4973411;28;21089;-78
2021/05/21 04:52:27;;;;;;;26.80;25.20;;;12.50;73.30;;;;;;4976374;28;20482;-78
2021/05/21 04:54:53;;;;;;;28.47;26.60;;;12.60;73.10;;;;;;4987341;28;20461;-78
2021/05/21 04:57:19;;;;;;;25.97;24.47;;;12.70;72.50;;;;;;4987249;28;20458;-79
2021/05/21 04:59:46;;;;;;;25.73;23.93;;;12.80;72.10;;;;;;4987028;28;20461;-78
2021/05/21 05:02:12;;;;;;;29.20;27.40;;;12.90;71.60;;;;;;4988292;28;20564;-80
2021/05/21 05:04:40;;;;;;;25.37;23.97;;;13.00;71.20;;;;;;4991961;28;20556;-79
2021/05/21 05:07:09;;;;;;;24.93;23.43;;;13.10;71.40;;;;;;5006344;28;20480;-79
2021/05/21 05:09:35;;;;;;;26.33;24.83;;;13.20;70.80;;;;;;4993086;28;20552;-80
2021/05/21 05:12:02;;;;;;;25.47;23.63;;;13.30;70.40;;;;;;4998757;28;20507;-81
2021/05/21 05:14:28;;;;;;;26.27;24.47;;;13.40;70.00;;;;;;4992736;28;20466;-80
2021/05/21 05:16:55;;;;;;;27.87;26.27;;;13.40;70.10;;;;;;4994484;28;20502;-81
2021/05/21 05:19:22;;;;;;;25.60;24.00;;;13.50;69.60;;;;;;4991449;28;20457;-80
2021/05/21 05:21:49;;;;;;;26.23;24.73;;;13.70;69.00;;;;;;4989835;28;20478;-80
2021/05/21 05:24:18;;;;;;;27.87;26.17;;;13.80;68.80;;;;;;4991570;28;20508;-80
2021/05/21 05:26:45;;;;;;;25.83;24.43;;;13.80;68.80;;;;;;5006087;28;20465;-80
2021/05/21 05:29:11;;;;;;;28.73;27.13;;;14.00;67.80;;;;;;4994773;28;20461;-80
2021/05/21 05:31:38;;;;;;;27.10;25.30;;;14.10;67.60;;;;;;4998363;28;20493;-80
2021/05/21 05:34:05;;;;;;;26.40;24.80;;;14.20;66.90;;;;;;4997092;28;20529;-81
2021/05/21 05:36:32;;;;;;;26.27;24.53;;;14.20;66.70;;;;;;4997956;28;21042;-81
2021/05/21 05:38:59;;;;;;;28.00;26.10;;;14.30;66.60;;;;;;4991524;28;20468;-80
2021/05/21 05:41:26;;;;;;;27.30;25.33;;;14.30;66.30;;;;;;4991893;28;20516;-78
2021/05/21 05:43:52;;;;;;;25.50;24.10;;;14.30;66.30;;;;;;4999557;28;20488;-79
2021/05/21 05:46:19;;;;;;;25.77;24.30;;;14.40;66.10;;;;;;5011281;28;20461;-77
2021/05/21 05:48:46;;;;;;;28.33;25.97;;;14.40;66.10;;;;;;4996887;28;20468;-77
2021/05/21 05:51:13;;;;;;;96.87;35.83;;;14.40;65.80;;;;;;4991084;28;20507;-79
2021/05/21 05:53:41;;;;;;;25.73;24.20;;;14.40;66.10;;;;;;4992352;28;20469;-78
2021/05/21 05:56:09;;;;;;;26.43;24.83;;;14.50;65.60;;;;;;4991006;28;20555;-77
2021/05/21 05:58:37;;;;;;;25.03;23.57;;;14.50;67.40;;;;;;4992121;28;20472;-77
2021/05/21 06:01:04;;;;;;;26.07;24.33;;;14.80;64.40;;;;;;4991999;28;20863;-77
2021/05/21 06:03:30;;;;;;;28.23;26.63;;;14.90;63.50;;;;;;4988807;28;20476;-76
2021/05/21 06:05:58;;;;;;;25.30;23.70;;;15.00;62.60;;;;;;4991138;28;20545;-77
2021/05/21 06:08:24;;;;;;;26.33;24.43;;;15.20;62.00;;;;;;4996441;28;20538;-79
2021/05/21 06:10:51;;;;;;;26.73;24.97;;;15.40;62.40;;;;;;4988421;28;20477;-75
2021/05/21 06:13:22;;;;;;;26.03;24.27;;;15.40;62.40;;;;;;4992952;28;20510;-76
2021/05/21 06:15:49;;;;;;;27.60;25.60;;;15.60;61.90;;;;;;5004351;28;20627;-78
2021/05/21 06:18:15;;;;;;;26.47;24.97;;;15.80;61.40;;;;;;4987874;28;20548;-78
2021/05/21 06:20:42;;;;;;;27.70;25.70;;;16.00;61.70;;;;;;5003044;28;20966;-78
2021/05/21 06:23:08;;;;;;;29.73;26.77;;;16.10;61.10;;;;;;4999492;28;20544;-76
2021/05/21 06:25:55;;;;;;;27.13;25.33;;;16.30;60.30;;;;;;4987621;28;20461;-74
2021/05/21 06:28:23;;;;;;;24.40;22.90;;;16.40;60.60;;;;;;4993073;28;20461;-75
2021/05/21 06:30:51;;;;;;;29.23;27.37;;;16.60;59.30;;;;;;4990902;28;20250;-75
2021/05/21 06:33:17;;;;;;;27.80;26.40;;;16.60;58.70;;;;;;5001401;28;20563;-76
2021/05/21 06:35:46;;;;;;;25.73;24.33;;;16.70;58.70;;;;;;4998937;28;20469;-76
2021/05/21 06:38:12;;;;;;;27.40;25.33;;;16.70;58.80;;;;;;4995431;28;21221;-76
2021/05/21 06:40:39;;;;;;;50.67;30.00;;;16.70;58.40;;;;;;4992827;28;20461;-76
2021/05/21 06:43:09;;;;;;;28.93;25.93;;;16.60;59.10;;;;;;4999994;28;20849;-77
2021/05/21 06:45:37;;;;;;;25.70;24.30;;;16.70;58.40;;;;;;4990998;28;20536;-76
2021/05/21 06:48:04;;;;;;;25.77;24.30;;;16.80;58.20;;;;;;4990914;28;20541;-76
2021/05/21 06:50:31;;;;;;;26.80;24.63;;;16.90;57.80;;;;;;4995253;28;20484;-75
2021/05/21 06:52:57;;;;;;;28.63;25.63;;;17.00;57.90;;;;;;4985650;28;20605;-75
2021/05/21 06:55:24;;;;;;;25.60;23.90;;;17.10;57.80;;;;;;4990168;28;20546;-75
2021/05/21 06:57:51;;;;;;;26.30;24.70;;;17.20;57.40;;;;;;4991514;28;20512;-76
2021/05/21 07:00:18;;;;;;;27.50;25.10;;;17.30;57.30;;;;;;4996179;28;20468;-75
2021/05/21 07:02:46;;;;;;;26.37;24.37;;;17.50;56.90;;;;;;4989250;28;20565;-75
2021/05/21 07:05:14;;;;;;;26.57;24.17;;;17.60;56.40;;;;;;4982111;28;20492;-76
2021/05/21 07:07:41;;;;;;;27.83;25.73;;;17.70;56.20;;;;;;4992122;28;20461;-76
2021/05/21 07:10:09;;;;;;;29.83;26.80;;;17.60;56.50;;;;;;4979203;28;20584;-76
2021/05/21 07:12:35;;;;;;;33.73;26.00;;;17.80;55.80;;;;;;4994880;28;20489;-73
2021/05/21 07:15:02;;;;;;;45.10;29.67;;;17.80;55.40;;;;;;4994652;28;20464;-74
2021/05/21 07:17:29;;;;;;;43.80;28.97;;;17.90;55.20;;;;;;4995325;28;20556;-73
2021/05/21 07:19:56;;;;;;;46.27;27.73;;;17.90;55.80;;;;;;4991535;28;20808;-83
2021/05/21 07:22:23;;;;;;;26.40;24.20;;;17.90;55.80;;;;;;5006209;28;20592;-76
2021/05/21 07:24:49;;;;;;;26.67;24.53;;;17.90;55.50;;;;;;4990090;28;20545;-76
2021/05/21 07:27:16;;;;;;;28.17;26.10;;;18.00;55.50;;;;;;4999711;28;21054;-76
2021/05/21 07:29:42;;;;;;;25.17;23.50;;;17.90;55.40;;;;;;4990779;28;20450;-76
2021/05/21 07:32:09;;;;;;;31.30;25.13;;;17.90;55.50;;;;;;5003103;28;20489;-76
2021/05/21 07:34:36;;;;;;;26.53;24.00;;;17.80;56.20;;;;;;4989795;28;20491;-76
2021/05/21 07:37:03;;;;;;;39.93;26.60;;;17.90;55.70;;;;;;4993613;28;20460;-76
2021/05/21 07:39:30;;;;;;;27.63;25.13;;;18.00;55.50;;;;;;5004817;28;21029;-76
2021/05/21 07:41:58;;;;;;;31.67;29.30;;;17.90;55.90;;;;;;4997500;28;20559;-75
2021/05/21 07:44:25;;;;;;;29.47;27.30;;;17.80;56.00;;;;;;4994658;28;20464;-76
2021/05/21 07:46:52;;;;;;;26.53;24.93;;;17.70;55.80;;;;;;4997285;28;20861;-76
2021/05/21 07:49:22;;;;;;;31.57;29.13;;;17.70;56.20;;;;;;4988812;28;20576;-76
2021/05/21 07:51:49;;;;;;;76.43;32.87;;;17.60;56.20;;;;;;5003785;28;20480;-77
2021/05/21 07:54:17;;;;;;;26.47;24.07;;;17.40;57.00;;;;;;4998195;28;20533;-76
2021/05/21 07:56:44;;;;;;;25.50;23.70;;;17.40;56.80;;;;;;4989937;28;20477;-76
2021/05/21 07:59:12;;;;;;;35.43;25.40;;;17.40;57.00;;;;;;4987880;28;20472;-76
2021/05/21 08:01:39;;;;;;;30.70;27.97;;;17.50;57.30;;;;;;4989825;28;20592;-76
2021/05/21 08:04:06;;;;;;;27.07;24.60;;;17.60;56.40;;;;;;4989146;28;20535;-76
2021/05/21 08:06:33;;;;;;;24.50;23.00;;;17.60;56.30;;;;;;4990599;28;20547;-76
2021/05/21 08:09:02;;;;;;;24.27;22.70;;;17.70;55.70;;;;;;4998390;28;20527;-76
2021/05/21 08:11:33;;;;;;;24.73;22.63;;;17.60;55.50;;;;;;4998893;28;20580;-76
2021/05/21 08:13:59;;;;;;;27.23;25.10;;;17.50;56.10;;;;;;4991690;28;20953;-77
2021/05/21 08:16:28;;;;;;;25.37;23.70;;;17.60;56.10;;;;;;4988535;28;20477;-77
2021/05/21 08:18:54;;;;;;;26.07;24.17;;;17.60;56.20;;;;;;4986722;28;20526;-76
2021/05/21 08:21:23;;;;;;;28.50;25.80;;;17.50;55.90;;;;;;4998141;28;20923;-77
2021/05/21 08:23:49;;;;;;;26.03;24.13;;;17.60;56.10;;;;;;4981958;28;20458;-77
2021/05/21 08:26:16;;;;;;;24.77;23.47;;;17.60;56.50;;;;;;5006002;28;20464;-77
2021/05/21 08:28:43;;;;;;;26.00;24.50;;;17.70;56.20;;;;;;4996660;28;20469;-77
2021/05/21 08:31:10;;;;;;;26.00;24.30;;;17.70;56.30;;;;;;4997892;28;21039;-76
2021/05/21 08:33:43;;;;;;;26.47;25.00;;;17.70;56.40;;;;;;4985174;28;20458;-77
2021/05/21 08:36:13;;;;;;;25.17;23.23;;;17.60;56.00;;;;;;4983176;28;20516;-77
2021/05/21 08:38:44;;;;;;;28.60;27.00;;;17.70;55.90;;;;;;4982780;28;20469;-77
2021/05/21 08:41:16;;;;;;;27.00;25.40;;;17.70;56.00;;;;;;4998494;28;20468;-77
2021/05/21 08:43:46;;;;;;;26.00;24.50;;;17.70;55.90;;;;;;4988776;28;20472;-77
2021/05/21 08:46:13;;;;;;;26.23;24.33;;;17.70;55.80;;;;;;4983199;28;20477;-77
2021/05/21 08:48:40;;;;;;;24.10;22.83;;;17.70;56.00;;;;;;4986258;28;20476;-77
2021/05/21 08:51:09;;;;;;;28.40;25.10;;;17.70;56.10;;;;;;4992204;28;20535;-77
2021/05/21 08:53:36;;;;;;;26.90;24.80;;;17.60;56.20;;;;;;4984755;28;20497;-77
2021/05/21 08:56:03;;;;;;;28.57;25.57;;;17.60;56.30;;;;;;4990703;28;20519;-77
2021/05/21 08:58:29;;;;;;;25.20;23.70;;;17.50;56.30;;;;;;4991558;28;20457;-78
2021/05/21 09:00:57;;;;;;;24.93;23.43;;;17.40;56.70;;;;;;4987816;28;20465;-77
2021/05/21 09:03:24;;;;;;;27.90;25.87;;;17.20;56.70;;;;;;4984487;28;21153;-77
2021/05/21 09:06:17;;;;;;;25.80;24.40;;;17.10;56.80;;;;;;4983431;28;20468;-77
2021/05/21 09:08:45;;;;;;;24.70;23.10;;;17.20;57.00;;;;;;4973663;28;20450;-77
2021/05/21 09:11:34;;;;;;;24.83;23.17;;;17.20;56.50;;;;;;4987707;28;20579;-77
2021/05/21 09:14:03;;;;;;;24.83;23.23;;;17.30;55.90;;;;;;4980935;28;20461;-78
2021/05/21 09:16:32;;;;;;;25.47;24.00;;;17.40;55.70;;;;;;4999307;28;20959;-77
2021/05/21 09:19:00;;;;;;;24.13;22.83;;;17.40;55.70;;;;;;4990107;28;20952;-77
2021/05/21 09:21:44;;;;;;;23.10;21.80;;;17.40;56.00;;;;;;4986550;28;20502;-79
2021/05/21 09:24:11;;;;;;;24.37;22.97;;;17.40;55.70;;;;;;4987848;28;20552;-77
2021/05/21 09:26:42;;;;;;;25.17;23.47;;;17.50;55.80;;;;;;4992567;28;20477;-77
2021/05/21 09:29:11;;;;;;;24.90;23.60;;;17.50;56.20;;;;;;4986728;28;20469;-77
2021/05/21 09:31:45;;;;;;;24.13;22.87;;;17.40;56.10;;;;;;4994667;28;20481;-78
2021/05/21 09:34:13;;;;;;;25.07;23.77;;;17.50;56.70;;;;;;4985258;28;20465;-77
2021/05/21 09:36:41;;;;;;;25.27;23.50;;;17.40;56.50;;;;;;5004023;28;20552;-77
2021/05/21 09:39:09;;;;;;;24.93;23.67;;;17.40;57.10;;;;;;4999851;28;20979;-77
2021/05/21 09:41:47;;;;;;;24.83;23.33;;;17.50;56.70;;;;;;5002144;28;20481;-77
2021/05/21 09:44:14;;;;;;;23.97;22.57;;;17.50;56.50;;;;;;4992525;28;21023;-77
2021/05/21 09:46:42;;;;;;;25.30;22.83;;;17.50;57.00;;;;;;4983925;28;20481;-77
2021/05/21 09:49:34;;;;;;;26.20;24.20;;;17.50;56.90;;;;;;4991997;28;20461;-79
2021/05/21 09:52:01;;;;;;;24.93;23.23;;;17.50;57.20;;;;;;4991933;28;20951;-77
2021/05/21 09:54:47;;;;;;;26.43;24.60;;;17.40;56.90;;;;;;4990657;28;20454;-77
2021/05/21 09:57:15;;;;;;;24.90;23.00;;;17.40;56.90;;;;;;4984517;28;20468;-77
2021/05/21 09:59:43;;;;;;;25.33;23.73;;;17.50;57.60;;;;;;4986072;28;20907;-77
2021/05/21 10:02:20;;;;;;;24.93;23.40;;;17.50;57.40;;;;;;4987083;28;20778;-78
2021/05/21 10:04:48;;;;;;;24.40;22.87;;;17.50;57.10;;;;;;4986648;28;20503;-78
2021/05/21 10:07:15;;;;;;;25.00;23.40;;;17.50;57.10;;;;;;4987321;28;20453;-79
2021/05/21 10:09:42;;;;;;;26.73;25.20;;;17.40;56.90;;;;;;4989831;28;20458;-79
2021/05/21 10:12:09;;;;;;;24.60;23.10;;;17.50;56.90;;;;;;4990471;28;20478;-80
2021/05/21 10:14:35;;;;;;;24.00;22.60;;;17.30;57.20;;;;;;4986412;28;20457;-76
2021/05/21 10:17:03;;;;;;;25.63;23.40;;;17.30;57.40;;;;;;4992619;28;20465;-77
2021/05/21 10:19:31;;;;;;;27.17;25.37;;;17.30;57.40;;;;;;4988428;28;20472;-78
2021/05/21 10:21:59;;;;;;;25.40;23.47;;;17.40;57.50;;;;;;4978752;28;21314;-77
2021/05/21 10:24:31;;;;;;;38.47;24.10;;;17.40;57.70;;;;;;4994939;28;20457;-77
2021/05/21 10:27:00;;;;;;;23.70;22.37;;;17.50;57.50;;;;;;4991298;28;20889;-79
2021/05/21 10:29:31;;;;;;;25.80;24.27;;;17.40;57.50;;;;;;4994978;28;20810;-77
2021/05/21 10:32:11;;;;;;;24.20;22.90;;;17.40;57.40;;;;;;4993850;28;20518;-78
2021/05/21 10:34:41;;;;;;;24.33;23.03;;;17.50;57.80;;;;;;4990393;28;20477;-76
2021/05/21 10:37:24;;;;;;;24.13;22.93;;;17.60;57.60;;;;;;5002613;28;20463;-77
2021/05/21 10:40:01;;;;;;;24.90;23.60;;;17.60;57.70;;;;;;4998730;28;20462;-77
2021/05/21 10:42:29;;;;;;;24.67;23.33;;;17.60;57.80;;;;;;4993416;28;20484;-77
2021/05/21 10:45:07;;;;;;;24.10;22.80;;;17.60;58.00;;;;;;4989328;28;20468;-78
2021/05/21 10:47:39;;;;;;;24.90;23.50;;;17.60;58.20;;;;;;4985612;28;20847;-79
2021/05/21 10:50:20;;;;;;;24.43;23.20;;;17.70;58.40;;;;;;4993506;28;20461;-78
2021/05/21 10:52:59;;;;;;;24.80;23.40;;;17.80;57.90;;;;;;4993467;28;21018;-78
2021/05/21 10:55:52;;;;;;;28.53;26.80;;;18.00;58.20;;;;;;4989970;28;21085;-78
2021/05/21 10:58:29;;;;;;;25.60;23.80;;;18.10;57.80;;;;;;4991367;28;20955;-78
2021/05/21 11:01:18;;;;;;;25.37;23.77;;;18.20;58.20;;;;;;4995793;28;20817;-79
2021/05/21 11:04:06;;;;;;;25.10;23.70;;;18.40;57.70;;;;;;4980109;28;23314;-78
2021/05/21 11:06:42;;;;;;;25.30;24.00;;;18.50;57.40;;;;;;4986792;28;20469;-79
2021/05/21 11:09:12;;;;;;;26.23;24.83;;;18.60;57.20;;;;;;4992330;28;20467;-78
2021/05/21 11:12:00;;;;;;;24.33;23.13;;;18.60;56.70;;;;;;4989314;28;20481;-78
2021/05/21 11:14:45;;;;;;;24.67;23.37;;;18.50;57.30;;;;;;4996291;28;20464;-78
2021/05/21 11:17:17;;;;;;;25.60;24.10;;;18.70;57.10;;;;;;4989759;28;20523;-78
2021/05/21 11:19:46;;;;;;;26.00;24.70;;;18.70;57.10;;;;;;4988277;28;20496;-78
2021/05/21 11:22:28;;;;;;;25.40;23.83;;;18.80;56.60;;;;;;4987534;28;20477;-79
2021/05/21 11:24:57;;;;;;;81.97;31.90;;;19.00;56.40;;;;;;4991931;28;20469;-81
2021/05/21 11:27:26;;;;;;;26.17;24.20;;;19.00;56.00;;;;;;4987125;28;20464;-78
2021/05/21 11:29:56;;;;;;;31.03;28.13;;;18.90;56.10;;;;;;4985525;28;20505;-83
2021/05/21 11:32:24;;;;;;;26.03;24.13;;;19.20;55.80;;;;;;4994300;28;20481;-80
2021/05/21 11:34:51;;;;;;;25.50;23.90;;;19.40;55.70;;;;;;4997878;28;20497;-80
2021/05/21 11:37:21;;;;;;;24.87;23.50;;;19.70;54.80;;;;;;5004810;28;20923;-80
2021/05/21 11:39:48;;;;;;;25.10;23.70;;;19.80;54.40;;;;;;4994157;28;20466;-80
2021/05/21 11:42:17;;;;;;;25.70;23.97;;;20.10;54.50;;;;;;4997351;28;20489;-76
2021/05/21 11:44:47;;;;;;;25.37;24.07;;;20.20;54.50;;;;;;4983451;28;20477;-81
2021/05/21 11:47:22;;;;;;;26.67;24.77;;;20.30;53.70;;;;;;5010312;28;20469;-83
2021/05/21 11:49:49;;;;;;;24.50;23.30;;;20.40;53.60;;;;;;5005501;28;20490;-81
2021/05/21 11:52:16;;;;;;;26.00;24.50;;;20.30;53.60;;;;;;4993331;28;20867;-80
2021/05/21 11:54:43;;;;;;;24.83;23.33;;;20.20;52.90;;;;;;5005374;28;20552;-77
2021/05/21 11:57:13;;;;;;;25.57;24.07;;;20.20;53.20;;;;;;4996780;28;20867;-78
2021/05/21 11:59:40;;;;;;;24.50;23.20;;;20.20;53.50;;;;;;5003582;28;20515;-78
2021/05/21 12:02:07;;;;;;;28.27;26.77;;;20.20;53.70;;;;;;5008672;28;20475;-79
2021/05/21 12:04:35;;;;;;;24.97;23.63;;;20.10;53.10;;;;;;4997308;28;20506;-80
2021/05/21 12:07:02;;;;;;;25.43;24.03;;;20.30;53.00;;;;;;5001887;28;20489;-77
2021/05/21 12:09:29;;;;;;;25.23;23.83;;;20.30;52.30;;;;;;4993212;28;20466;-76
2021/05/21 12:11:56;;;;;;;24.80;23.50;;;20.20;52.50;;;;;;5000518;28;20488;-78
2021/05/21 12:14:24;;;;;;;24.00;22.80;;;20.20;51.50;;;;;;4988064;28;20469;-78
2021/05/21 12:16:54;;;;;;;24.60;23.30;;;20.20;51.60;;;;;;4989049;28;20963;-77
2021/05/21 12:19:21;;;;;;;24.20;23.00;;;20.10;51.10;;;;;;4992089;28;20469;-78
2021/05/21 12:21:49;;;;;;;25.00;23.80;;;20.10;51.40;;;;;;4980845;28;20500;-77
2021/05/21 12:24:20;;;;;;;25.67;24.07;;;20.20;52.20;;;;;;4978418;28;20525;-78
2021/05/21 12:26:48;;;;;;;26.27;24.67;;;20.20;51.80;;;;;;4980706;28;20462;-78
2021/05/21 12:29:16;;;;;;;26.27;24.97;;;20.30;52.20;;;;;;4981339;28;20496;-78
2021/05/21 12:31:47;;;;;;;25.47;23.77;;;20.30;51.80;;;;;;4985080;28;20492;-77